sensor_id;sensor_type;location;lat;lon;timestamp;temperature;humidity
37702;DHT22;23548;51.196;6.838;2023-11-22T00:00:21;6.70;99.90
37702;DHT22;23548;51.196;6.838;2023-11-22T00:02:47;6.60;99.90
37702;DHT22;23548;51.196;6.838;2023-11-22T00:05:13;6.60;99.90
37702;DHT22;23548;51.196;6.838;2023-11-22T00:07:38;6.50;99.90
37702;DHT22;23548;51.196;6.838;2023-11-22T00:10:05;6.50;99.90
37702;DHT22;23548;51.196;6.838;2023-11-22T00:12:31;6.60;99.90
37702;DHT22;23548;51.196;6.838;2023-11-22T00:15:04;6.60;99.90
37702;DHT22;23548;51.196;6.838;2023-11-22T00:17:31;6.60;99.90
37702;DHT22;23548;51.196;6.838;2023-11-22T00:19:58;6.70;99.90
37702;DHT22;23548;51.196;6.838;2023-11-22T00:22:26;6.70;99.90
37702;DHT22;23548;51.196;6.838;2023-11-22T00:24:53;6.60;99.90
37702;DHT22;23548;51.196;6.838;2023-11-22T00:27:19;6.60;99.90
37702;DHT22;23548;51.196;6.838;2023-11-22T00:29:45;6.50;99.90
37702;DHT22;23548;51.196;6.838;2023-11-22T00:32:14;6.50;99.90
37702;DHT22;23548;51.196;6.838;2023-11-22T00:34:40;6.40;99.90
37702;DHT22;23548;51.196;6.838;2023-11-22T00:37:06;6.30;99.90
37702;DHT22;23548;51.196;6.838;2023-11-22T00:39:32;6.30;99.90
37702;DHT22;23548;51.196;6.838;2023-11-22T00:41:58;6.30;99.90
37702;DHT22;23548;51.196;6.838;2023-11-22T00:44:24;6.20;99.90
37702;DHT22;23548;51.196;6.838;2023-11-22T00:46:50;6.20;99.90
37702;DHT22;23548;51.196;6.838;2023-11-22T00:49:16;6.10;99.90
37702;DHT22;23548;51.196;6.838;2023-11-22T00:51:42;6.10;99.90
37702;DHT22;23548;51.196;6.838;2023-11-22T00:54:07;6.00;99.90
37702;DHT22;23548;51.196;6.838;2023-11-22T00:56:33;5.90;99.90
37702;DHT22;23548;51.196;6.838;2023-11-22T00:58:59;5.90;99.90
37702;DHT22;23548;51.196;6.838;2023-11-22T01:01:26;5.80;99.90
37702;DHT22;23548;51.196;6.838;2023-11-22T01:03:52;5.70;99.90
37702;DHT22;23548;51.196;6.838;2023-11-22T01:06:17;5.60;99.90
37702;DHT22;23548;51.196;6.838;2023-11-22T01:08:44;5.60;99.90
37702;DHT22;23548;51.196;6.838;2023-11-22T01:11:09;5.60;99.90
37702;DHT22;23548;51.196;6.838;2023-11-22T01:13:35;5.60;99.90
37702;DHT22;23548;51.196;6.838;2023-11-22T01:16:11;5.50;99.90
37702;DHT22;23548;51.196;6.838;2023-11-22T01:18:38;5.50;99.90
37702;DHT22;23548;51.196;6.838;2023-11-22T01:21:04;5.40;99.90
37702;DHT22;23548;51.196;6.838;2023-11-22T01:23:31;5.40;99.90
37702;DHT22;23548;51.196;6.838;2023-11-22T01:26:00;5.30;99.90
37702;DHT22;23548;51.196;6.838;2023-11-22T01:28:26;5.20;99.90
37702;DHT22;23548;51.196;6.838;2023-11-22T01:30:55;5.20;99.90
37702;DHT22;23548;51.196;6.838;2023-11-22T01:33:22;5.20;99.90
37702;DHT22;23548;51.196;6.838;2023-11-22T01:35:47;5.10;99.90
37702;DHT22;23548;51.196;6.838;2023-11-22T01:38:14;5.10;99.90
37702;DHT22;23548;51.196;6.838;2023-11-22T01:40:47;5.00;99.90
37702;DHT22;23548;51.196;6.838;2023-11-22T01:43:20;5.00;99.90
37702;DHT22;23548;51.196;6.838;2023-11-22T01:45:53;5.00;99.90
37702;DHT22;23548;51.196;6.838;2023-11-22T01:48:19;4.90;99.90
37702;DHT22;23548;51.196;6.838;2023-11-22T01:50:46;4.90;99.90
37702;DHT22;23548;51.196;6.838;2023-11-22T01:53:15;4.90;99.90
37702;DHT22;23548;51.196;6.838;2023-11-22T01:55:42;4.80;99.90
37702;DHT22;23548;51.196;6.838;2023-11-22T01:58:09;4.80;99.90
37702;DHT22;23548;51.196;6.838;2023-11-22T02:00:45;4.90;99.90
37702;DHT22;23548;51.196;6.838;2023-11-22T02:03:14;4.90;99.90
37702;DHT22;23548;51.196;6.838;2023-11-22T02:05:41;5.00;99.90
37702;DHT22;23548;51.196;6.838;2023-11-22T02:08:09;5.10;99.90
37702;DHT22;23548;51.196;6.838;2023-11-22T02:10:35;5.20;99.90
37702;DHT22;23548;51.196;6.838;2023-11-22T02:13:06;5.20;99.90
37702;DHT22;23548;51.196;6.838;2023-11-22T02:15:34;5.20;99.90
37702;DHT22;23548;51.196;6.838;2023-11-22T02:18:00;5.20;99.90
37702;DHT22;23548;51.196;6.838;2023-11-22T02:20:26;5.10;99.90
37702;DHT22;23548;51.196;6.838;2023-11-22T02:22:52;5.10;99.90
37702;DHT22;23548;51.196;6.838;2023-11-22T02:25:18;5.10;99.90
37702;DHT22;23548;51.196;6.838;2023-11-22T02:27:45;4.90;99.90
37702;DHT22;23548;51.196;6.838;2023-11-22T02:30:11;4.90;99.90
37702;DHT22;23548;51.196;6.838;2023-11-22T02:32:37;4.80;99.90
37702;DHT22;23548;51.196;6.838;2023-11-22T02:35:04;4.80;99.90
37702;DHT22;23548;51.196;6.838;2023-11-22T02:37:33;4.80;99.90
37702;DHT22;23548;51.196;6.838;2023-11-22T02:42:43;4.60;99.90
37702;DHT22;23548;51.196;6.838;2023-11-22T02:45:09;4.60;99.90
37702;DHT22;23548;51.196;6.838;2023-11-22T02:47:35;4.60;99.90
37702;DHT22;23548;51.196;6.838;2023-11-22T02:50:02;4.60;99.90
37702;DHT22;23548;51.196;6.838;2023-11-22T02:52:31;4.50;99.90
37702;DHT22;23548;51.196;6.838;2023-11-22T02:54:56;4.50;99.90
37702;DHT22;23548;51.196;6.838;2023-11-22T02:57:22;4.50;99.90
37702;DHT22;23548;51.196;6.838;2023-11-22T03:03:07;4.40;99.90
37702;DHT22;23548;51.196;6.838;2023-11-22T03:05:36;4.40;99.90
37702;DHT22;23548;51.196;6.838;2023-11-22T03:08:05;4.30;99.90
37702;DHT22;23548;51.196;6.838;2023-11-22T03:10:33;4.30;99.90
37702;DHT22;23548;51.196;6.838;2023-11-22T03:12:59;4.30;99.90
37702;DHT22;23548;51.196;6.838;2023-11-22T03:15:24;4.20;99.90
37702;DHT22;23548;51.196;6.838;2023-11-22T03:17:51;4.30;99.90
37702;DHT22;23548;51.196;6.838;2023-11-22T03:20:17;4.20;99.90
37702;DHT22;23548;51.196;6.838;2023-11-22T03:22:43;4.20;99.90
37702;DHT22;23548;51.196;6.838;2023-11-22T03:25:10;4.20;99.90
37702;DHT22;23548;51.196;6.838;2023-11-22T03:27:37;4.20;99.90
37702;DHT22;23548;51.196;6.838;2023-11-22T03:30:03;4.20;99.90
37702;DHT22;23548;51.196;6.838;2023-11-22T03:32:29;4.20;99.90
37702;DHT22;23548;51.196;6.838;2023-11-22T03:34:55;4.10;99.90
37702;DHT22;23548;51.196;6.838;2023-11-22T03:37:23;4.20;99.90
37702;DHT22;23548;51.196;6.838;2023-11-22T03:39:49;4.20;99.90
37702;DHT22;23548;51.196;6.838;2023-11-22T03:42:16;4.20;99.90
37702;DHT22;23548;51.196;6.838;2023-11-22T03:44:42;4.10;99.90
37702;DHT22;23548;51.196;6.838;2023-11-22T03:47:08;4.10;99.90
37702;DHT22;23548;51.196;6.838;2023-11-22T03:49:33;4.00;99.90
37702;DHT22;23548;51.196;6.838;2023-11-22T03:51:59;4.00;99.90
37702;DHT22;23548;51.196;6.838;2023-11-22T03:54:25;4.00;99.90
37702;DHT22;23548;51.196;6.838;2023-11-22T03:56:51;4.00;99.90
37702;DHT22;23548;51.196;6.838;2023-11-22T03:59:17;3.90;99.90
37702;DHT22;23548;51.196;6.838;2023-11-22T04:01:43;3.90;99.90
37702;DHT22;23548;51.196;6.838;2023-11-22T04:04:09;3.90;99.90
37702;DHT22;23548;51.196;6.838;2023-11-22T04:06:35;3.90;99.90
37702;DHT22;23548;51.196;6.838;2023-11-22T04:09:01;3.90;99.90
37702;DHT22;23548;51.196;6.838;2023-11-22T04:11:28;3.80;99.90
37702;DHT22;23548;51.196;6.838;2023-11-22T04:13:55;3.80;99.90
37702;DHT22;23548;51.196;6.838;2023-11-22T04:16:21;3.80;99.90
37702;DHT22;23548;51.196;6.838;2023-11-22T04:18:46;3.80;99.90
37702;DHT22;23548;51.196;6.838;2023-11-22T04:21:12;3.80;99.90
37702;DHT22;23548;51.196;6.838;2023-11-22T04:23:38;3.70;99.90
37702;DHT22;23548;51.196;6.838;2023-11-22T04:26:03;3.70;99.90
37702;DHT22;23548;51.196;6.838;2023-11-22T04:28:30;3.70;99.90
37702;DHT22;23548;51.196;6.838;2023-11-22T04:30:56;3.70;99.90
37702;DHT22;23548;51.196;6.838;2023-11-22T04:33:25;3.70;99.90
37702;DHT22;23548;51.196;6.838;2023-11-22T04:35:54;3.70;99.90
37702;DHT22;23548;51.196;6.838;2023-11-22T04:38:20;3.70;99.90
37702;DHT22;23548;51.196;6.838;2023-11-22T04:40:46;3.70;99.90
37702;DHT22;23548;51.196;6.838;2023-11-22T04:43:12;3.80;99.90
37702;DHT22;23548;51.196;6.838;2023-11-22T04:45:37;3.70;99.90
37702;DHT22;23548;51.196;6.838;2023-11-22T04:48:05;3.80;99.90
37702;DHT22;23548;51.196;6.838;2023-11-22T04:50:32;3.80;99.90
37702;DHT22;23548;51.196;6.838;2023-11-22T04:52:58;3.80;99.90
37702;DHT22;23548;51.196;6.838;2023-11-22T04:55:24;3.80;99.90
37702;DHT22;23548;51.196;6.838;2023-11-22T04:57:50;3.90;99.90
37702;DHT22;23548;51.196;6.838;2023-11-22T05:00:16;3.90;99.90
37702;DHT22;23548;51.196;6.838;2023-11-22T05:02:43;3.80;99.90
37702;DHT22;23548;51.196;6.838;2023-11-22T05:05:08;3.80;99.90
37702;DHT22;23548;51.196;6.838;2023-11-22T05:07:38;3.80;99.90
37702;DHT22;23548;51.196;6.838;2023-11-22T05:10:05;3.80;99.90
37702;DHT22;23548;51.196;6.838;2023-11-22T05:12:31;3.80;99.90
37702;DHT22;23548;51.196;6.838;2023-11-22T05:14:57;3.80;99.90
37702;DHT22;23548;51.196;6.838;2023-11-22T05:17:23;3.80;99.90
37702;DHT22;23548;51.196;6.838;2023-11-22T05:19:49;3.80;99.90
37702;DHT22;23548;51.196;6.838;2023-11-22T05:22:16;3.80;99.90
37702;DHT22;23548;51.196;6.838;2023-11-22T05:24:42;3.80;99.90
37702;DHT22;23548;51.196;6.838;2023-11-22T05:27:08;3.80;99.90
37702;DHT22;23548;51.196;6.838;2023-11-22T05:29:34;3.70;99.90
37702;DHT22;23548;51.196;6.838;2023-11-22T05:32:01;3.70;99.90
37702;DHT22;23548;51.196;6.838;2023-11-22T05:34:28;3.70;99.90
37702;DHT22;23548;51.196;6.838;2023-11-22T05:36:54;3.70;99.90
37702;DHT22;23548;51.196;6.838;2023-11-22T05:39:20;3.60;99.90
37702;DHT22;23548;51.196;6.838;2023-11-22T05:41:48;3.60;99.90
37702;DHT22;23548;51.196;6.838;2023-11-22T05:44:14;3.60;99.90
37702;DHT22;23548;51.196;6.838;2023-11-22T05:46:40;3.50;99.90
37702;DHT22;23548;51.196;6.838;2023-11-22T05:49:06;3.50;99.90
37702;DHT22;23548;51.196;6.838;2023-11-22T05:51:32;3.50;99.90
37702;DHT22;23548;51.196;6.838;2023-11-22T05:53:59;3.50;99.90
37702;DHT22;23548;51.196;6.838;2023-11-22T05:56:25;3.50;99.90
37702;DHT22;23548;51.196;6.838;2023-11-22T05:58:50;3.50;99.90
37702;DHT22;23548;51.196;6.838;2023-11-22T06:01:16;3.40;99.90
37702;DHT22;23548;51.196;6.838;2023-11-22T06:03:42;3.40;99.90
37702;DHT22;23548;51.196;6.838;2023-11-22T06:06:08;3.40;99.90
37702;DHT22;23548;51.196;6.838;2023-11-22T06:08:34;3.40;99.90
37702;DHT22;23548;51.196;6.838;2023-11-22T06:10:59;3.40;99.90
37702;DHT22;23548;51.196;6.838;2023-11-22T06:13:26;3.30;99.90
37702;DHT22;23548;51.196;6.838;2023-11-22T06:15:52;3.30;99.90
37702;DHT22;23548;51.196;6.838;2023-11-22T06:18:18;3.20;99.90
37702;DHT22;23548;51.196;6.838;2023-11-22T06:20:45;3.20;99.90
37702;DHT22;23548;51.196;6.838;2023-11-22T06:23:12;3.30;99.90
37702;DHT22;23548;51.196;6.838;2023-11-22T06:25:38;3.30;99.90
37702;DHT22;23548;51.196;6.838;2023-11-22T06:28:07;3.20;99.90
37702;DHT22;23548;51.196;6.838;2023-11-22T06:30:33;3.20;99.90
37702;DHT22;23548;51.196;6.838;2023-11-22T06:33:00;3.20;99.90
37702;DHT22;23548;51.196;6.838;2023-11-22T06:35:26;3.10;99.90
37702;DHT22;23548;51.196;6.838;2023-11-22T06:37:52;3.20;99.90
37702;DHT22;23548;51.196;6.838;2023-11-22T06:40:18;3.10;99.90
37702;DHT22;23548;51.196;6.838;2023-11-22T06:42:46;3.20;99.90
37702;DHT22;23548;51.196;6.838;2023-11-22T06:45:12;3.10;99.90
37702;DHT22;23548;51.196;6.838;2023-11-22T06:47:44;3.10;99.90
37702;DHT22;23548;51.196;6.838;2023-11-22T06:50:10;3.10;99.90
37702;DHT22;23548;51.196;6.838;2023-11-22T06:52:39;3.10;99.90
37702;DHT22;23548;51.196;6.838;2023-11-22T06:55:06;3.00;99.90
37702;DHT22;23548;51.196;6.838;2023-11-22T06:57:38;3.10;99.90
37702;DHT22;23548;51.196;6.838;2023-11-22T07:00:05;3.10;99.90
37702;DHT22;23548;51.196;6.838;2023-11-22T07:02:32;3.10;99.90
37702;DHT22;23548;51.196;6.838;2023-11-22T07:04:57;3.20;99.90
37702;DHT22;23548;51.196;6.838;2023-11-22T07:07:26;3.30;99.90
37702;DHT22;23548;51.196;6.838;2023-11-22T07:09:52;3.40;99.90
37702;DHT22;23548;51.196;6.838;2023-11-22T07:12:18;3.40;99.90
37702;DHT22;23548;51.196;6.838;2023-11-22T07:14:44;3.30;99.90
37702;DHT22;23548;51.196;6.838;2023-11-22T07:17:10;3.20;99.90
37702;DHT22;23548;51.196;6.838;2023-11-22T07:19:36;3.10;99.90
37702;DHT22;23548;51.196;6.838;2023-11-22T07:22:06;3.10;99.90
37702;DHT22;23548;51.196;6.838;2023-11-22T07:24:42;3.10;99.90
37702;DHT22;23548;51.196;6.838;2023-11-22T07:27:13;3.20;99.90
37702;DHT22;23548;51.196;6.838;2023-11-22T07:29:42;3.20;99.90
37702;DHT22;23548;51.196;6.838;2023-11-22T07:32:08;3.30;99.90
37702;DHT22;23548;51.196;6.838;2023-11-22T07:34:39;3.30;99.90
37702;DHT22;23548;51.196;6.838;2023-11-22T07:37:05;3.20;99.90
37702;DHT22;23548;51.196;6.838;2023-11-22T07:39:35;3.20;99.90
37702;DHT22;23548;51.196;6.838;2023-11-22T07:42:02;3.20;99.90
37702;DHT22;23548;51.196;6.838;2023-11-22T07:44:28;3.30;99.90
37702;DHT22;23548;51.196;6.838;2023-11-22T07:46:54;3.30;99.90
37702;DHT22;23548;51.196;6.838;2023-11-22T07:49:20;3.40;99.90
37702;DHT22;23548;51.196;6.838;2023-11-22T07:51:47;3.50;99.90
37702;DHT22;23548;51.196;6.838;2023-11-22T07:54:13;3.70;99.90
37702;DHT22;23548;51.196;6.838;2023-11-22T07:56:42;3.50;99.90
37702;DHT22;23548;51.196;6.838;2023-11-22T07:59:12;3.40;99.90
37702;DHT22;23548;51.196;6.838;2023-11-22T08:01:38;3.30;99.90
37702;DHT22;23548;51.196;6.838;2023-11-22T08:04:04;3.30;99.90
37702;DHT22;23548;51.196;6.838;2023-11-22T08:06:31;3.20;99.90
37702;DHT22;23548;51.196;6.838;2023-11-22T08:08:58;3.20;99.90
37702;DHT22;23548;51.196;6.838;2023-11-22T08:11:27;3.20;99.90
37702;DHT22;23548;51.196;6.838;2023-11-22T08:13:54;3.20;99.90
37702;DHT22;23548;51.196;6.838;2023-11-22T08:16:23;3.20;99.90
37702;DHT22;23548;51.196;6.838;2023-11-22T08:18:48;3.30;99.90
37702;DHT22;23548;51.196;6.838;2023-11-22T08:21:14;3.30;99.90
37702;DHT22;23548;51.196;6.838;2023-11-22T08:23:40;3.30;99.90
37702;DHT22;23548;51.196;6.838;2023-11-22T08:26:06;3.30;99.90
37702;DHT22;23548;51.196;6.838;2023-11-22T08:28:34;3.40;99.90
37702;DHT22;23548;51.196;6.838;2023-11-22T08:31:00;3.40;99.90
37702;DHT22;23548;51.196;6.838;2023-11-22T08:33:29;3.40;99.90
37702;DHT22;23548;51.196;6.838;2023-11-22T08:35:55;3.50;99.90
37702;DHT22;23548;51.196;6.838;2023-11-22T08:38:25;3.50;99.90
37702;DHT22;23548;51.196;6.838;2023-11-22T08:40:54;3.50;99.90
37702;DHT22;23548;51.196;6.838;2023-11-22T08:43:22;3.80;99.90
37702;DHT22;23548;51.196;6.838;2023-11-22T08:45:51;3.90;99.90
37702;DHT22;23548;51.196;6.838;2023-11-22T08:48:16;4.10;99.90
37702;DHT22;23548;51.196;6.838;2023-11-22T08:50:43;4.30;99.90
37702;DHT22;23548;51.196;6.838;2023-11-22T08:53:10;4.40;99.90
37702;DHT22;23548;51.196;6.838;2023-11-22T08:55:36;4.40;99.90
37702;DHT22;23548;51.196;6.838;2023-11-22T08:58:01;4.40;99.90
37702;DHT22;23548;51.196;6.838;2023-11-22T09:00:27;4.40;99.90
37702;DHT22;23548;51.196;6.838;2023-11-22T09:02:54;4.40;99.90
37702;DHT22;23548;51.196;6.838;2023-11-22T09:05:23;4.50;99.90
37702;DHT22;23548;51.196;6.838;2023-11-22T09:07:48;4.50;99.90
37702;DHT22;23548;51.196;6.838;2023-11-22T09:10:15;4.60;99.90
37702;DHT22;23548;51.196;6.838;2023-11-22T09:12:43;4.60;99.90
37702;DHT22;23548;51.196;6.838;2023-11-22T09:15:11;4.80;99.90
37702;DHT22;23548;51.196;6.838;2023-11-22T09:17:38;4.90;99.90
37702;DHT22;23548;51.196;6.838;2023-11-22T09:20:10;5.10;99.90
37702;DHT22;23548;51.196;6.838;2023-11-22T09:22:47;5.30;99.90
37702;DHT22;23548;51.196;6.838;2023-11-22T09:25:17;5.40;99.90
37702;DHT22;23548;51.196;6.838;2023-11-22T09:27:45;5.60;99.90
37702;DHT22;23548;51.196;6.838;2023-11-22T09:30:13;5.80;99.90
37702;DHT22;23548;51.196;6.838;2023-11-22T09:32:45;5.90;99.90
37702;DHT22;23548;51.196;6.838;2023-11-22T09:35:13;6.00;99.90
37702;DHT22;23548;51.196;6.838;2023-11-22T09:37:41;6.10;99.90
37702;DHT22;23548;51.196;6.838;2023-11-22T09:40:10;6.00;99.90
37702;DHT22;23548;51.196;6.838;2023-11-22T09:42:37;6.00;99.90
37702;DHT22;23548;51.196;6.838;2023-11-22T09:45:04;5.90;99.90
37702;DHT22;23548;51.196;6.838;2023-11-22T09:47:32;5.90;99.90
37702;DHT22;23548;51.196;6.838;2023-11-22T09:50:01;6.00;99.90
37702;DHT22;23548;51.196;6.838;2023-11-22T09:52:33;6.00;99.90
37702;DHT22;23548;51.196;6.838;2023-11-22T09:55:01;6.20;99.90
37702;DHT22;23548;51.196;6.838;2023-11-22T09:57:29;6.30;99.90
37702;DHT22;23548;51.196;6.838;2023-11-22T09:59:57;6.40;99.90
37702;DHT22;23548;51.196;6.838;2023-11-22T10:02:24;6.60;99.90
37702;DHT22;23548;51.196;6.838;2023-11-22T10:04:54;6.70;99.90
37702;DHT22;23548;51.196;6.838;2023-11-22T10:07:23;6.40;99.90
37702;DHT22;23548;51.196;6.838;2023-11-22T10:09:49;6.50;99.90
37702;DHT22;23548;51.196;6.838;2023-11-22T10:12:19;6.90;99.90
37702;DHT22;23548;51.196;6.838;2023-11-22T10:14:48;7.10;99.90
37702;DHT22;23548;51.196;6.838;2023-11-22T10:17:13;7.40;99.90
37702;DHT22;23548;51.196;6.838;2023-11-22T10:19:42;7.40;99.90
37702;DHT22;23548;51.196;6.838;2023-11-22T10:22:08;7.60;99.90
37702;DHT22;23548;51.196;6.838;2023-11-22T10:24:35;7.60;99.90
37702;DHT22;23548;51.196;6.838;2023-11-22T10:27:01;7.70;99.90
37702;DHT22;23548;51.196;6.838;2023-11-22T10:29:28;7.80;99.90
37702;DHT22;23548;51.196;6.838;2023-11-22T10:31:54;7.70;99.90
37702;DHT22;23548;51.196;6.838;2023-11-22T10:34:21;7.60;99.90
37702;DHT22;23548;51.196;6.838;2023-11-22T10:36:49;7.80;99.90
37702;DHT22;23548;51.196;6.838;2023-11-22T10:39:19;7.90;99.90
37702;DHT22;23548;51.196;6.838;2023-11-22T10:41:46;8.00;99.90
37702;DHT22;23548;51.196;6.838;2023-11-22T10:44:12;7.80;99.90
37702;DHT22;23548;51.196;6.838;2023-11-22T10:46:39;7.90;99.90
37702;DHT22;23548;51.196;6.838;2023-11-22T10:49:08;7.90;99.90
37702;DHT22;23548;51.196;6.838;2023-11-22T10:51:33;7.90;99.90
37702;DHT22;23548;51.196;6.838;2023-11-22T10:54:01;7.90;99.90
37702;DHT22;23548;51.196;6.838;2023-11-22T10:56:38;8.00;99.90
37702;DHT22;23548;51.196;6.838;2023-11-22T10:59:19;7.90;99.90
37702;DHT22;23548;51.196;6.838;2023-11-22T11:01:47;7.90;99.90
37702;DHT22;23548;51.196;6.838;2023-11-22T11:04:29;7.90;99.70
37702;DHT22;23548;51.196;6.838;2023-11-22T11:06:59;7.90;99.70
37702;DHT22;23548;51.196;6.838;2023-11-22T11:09:27;7.90;98.80
37702;DHT22;23548;51.196;6.838;2023-11-22T11:11:58;8.20;99.90
37702;DHT22;23548;51.196;6.838;2023-11-22T11:14:26;8.40;98.90
37702;DHT22;23548;51.196;6.838;2023-11-22T11:16:53;8.50;97.40
37702;DHT22;23548;51.196;6.838;2023-11-22T11:19:21;8.50;98.20
37702;DHT22;23548;51.196;6.838;2023-11-22T11:21:48;8.50;98.30
37702;DHT22;23548;51.196;6.838;2023-11-22T11:24:14;8.80;98.90
37702;DHT22;23548;51.196;6.838;2023-11-22T11:26:40;8.80;97.20
37702;DHT22;23548;51.196;6.838;2023-11-22T11:29:06;8.60;96.90
37702;DHT22;23548;51.196;6.838;2023-11-22T11:31:34;7.90;96.30
37702;DHT22;23548;51.196;6.838;2023-11-22T11:34:08;8.10;96.80
37702;DHT22;23548;51.196;6.838;2023-11-22T11:36:36;8.20;94.30
37702;DHT22;23548;51.196;6.838;2023-11-22T11:39:06;8.00;94.40
37702;DHT22;23548;51.196;6.838;2023-11-22T11:41:35;8.10;95.10
37702;DHT22;23548;51.196;6.838;2023-11-22T11:44:08;8.00;96.20
37702;DHT22;23548;51.196;6.838;2023-11-22T11:46:38;8.10;95.90
37702;DHT22;23548;51.196;6.838;2023-11-22T11:49:08;8.20;96.30
37702;DHT22;23548;51.196;6.838;2023-11-22T11:51:37;8.60;94.00
37702;DHT22;23548;51.196;6.838;2023-11-22T11:54:04;8.80;94.30
37702;DHT22;23548;51.196;6.838;2023-11-22T11:56:31;9.10;93.30
37702;DHT22;23548;51.196;6.838;2023-11-22T11:58:58;9.10;92.70
37702;DHT22;23548;51.196;6.838;2023-11-22T12:01:27;9.00;91.60
37702;DHT22;23548;51.196;6.838;2023-11-22T12:03:55;8.70;92.10
37702;DHT22;23548;51.196;6.838;2023-11-22T12:06:21;8.70;92.00
37702;DHT22;23548;51.196;6.838;2023-11-22T12:08:47;9.00;91.60
37702;DHT22;23548;51.196;6.838;2023-11-22T12:11:14;9.10;90.10
37702;DHT22;23548;51.196;6.838;2023-11-22T12:13:41;8.70;89.10
37702;DHT22;23548;51.196;6.838;2023-11-22T12:16:18;8.30;91.30
37702;DHT22;23548;51.196;6.838;2023-11-22T12:18:46;8.30;93.10
37702;DHT22;23548;51.196;6.838;2023-11-22T12:21:14;8.10;93.00
37702;DHT22;23548;51.196;6.838;2023-11-22T12:23:42;7.70;93.20
37702;DHT22;23548;51.196;6.838;2023-11-22T12:26:15;7.40;93.60
37702;DHT22;23548;51.196;6.838;2023-11-22T12:28:45;7.10;92.80
37702;DHT22;23548;51.196;6.838;2023-11-22T12:31:12;7.10;93.60
37702;DHT22;23548;51.196;6.838;2023-11-22T12:33:40;7.20;94.00
37702;DHT22;23548;51.196;6.838;2023-11-22T12:36:07;7.30;93.60
37702;DHT22;23548;51.196;6.838;2023-11-22T12:38:42;7.40;94.80
37702;DHT22;23548;51.196;6.838;2023-11-22T12:41:08;7.70;93.60
37702;DHT22;23548;51.196;6.838;2023-11-22T12:43:34;7.70;92.30
37702;DHT22;23548;51.196;6.838;2023-11-22T12:46:02;7.70;92.10
37702;DHT22;23548;51.196;6.838;2023-11-22T12:48:29;7.80;92.50
37702;DHT22;23548;51.196;6.838;2023-11-22T12:50:59;7.80;91.40
37702;DHT22;23548;51.196;6.838;2023-11-22T12:53:25;7.70;92.20
37702;DHT22;23548;51.196;6.838;2023-11-22T12:55:54;7.70;91.70
37702;DHT22;23548;51.196;6.838;2023-11-22T12:58:22;7.60;92.50
37702;DHT22;23548;51.196;6.838;2023-11-22T13:00:50;7.60;92.00
37702;DHT22;23548;51.196;6.838;2023-11-22T13:03:16;7.50;92.20
37702;DHT22;23548;51.196;6.838;2023-11-22T13:05:43;7.80;92.70
37702;DHT22;23548;51.196;6.838;2023-11-22T13:08:10;7.90;93.00
37702;DHT22;23548;51.196;6.838;2023-11-22T13:10:44;7.90;92.90
37702;DHT22;23548;51.196;6.838;2023-11-22T13:13:13;7.80;92.80
37702;DHT22;23548;51.196;6.838;2023-11-22T13:15:39;7.70;93.40
37702;DHT22;23548;51.196;6.838;2023-11-22T13:18:06;7.60;93.10
37702;DHT22;23548;51.196;6.838;2023-11-22T13:20:34;7.60;91.90
37702;DHT22;23548;51.196;6.838;2023-11-22T13:23:00;7.50;90.60
37702;DHT22;23548;51.196;6.838;2023-11-22T13:25:26;7.70;90.90
37702;DHT22;23548;51.196;6.838;2023-11-22T13:27:52;8.00;90.90
37702;DHT22;23548;51.196;6.838;2023-11-22T13:30:19;8.20;90.40
37702;DHT22;23548;51.196;6.838;2023-11-22T13:32:52;8.20;90.40
37702;DHT22;23548;51.196;6.838;2023-11-22T13:35:19;8.40;90.20
37702;DHT22;23548;51.196;6.838;2023-11-22T13:37:47;8.50;90.20
37702;DHT22;23548;51.196;6.838;2023-11-22T13:40:15;8.50;90.40
37702;DHT22;23548;51.196;6.838;2023-11-22T13:42:46;8.50;90.10
37702;DHT22;23548;51.196;6.838;2023-11-22T13:45:14;8.30;92.80
37702;DHT22;23548;51.196;6.838;2023-11-22T13:47:46;8.30;94.00
37702;DHT22;23548;51.196;6.838;2023-11-22T13:50:17;8.20;94.20
37702;DHT22;23548;51.196;6.838;2023-11-22T13:52:53;8.30;94.50
37702;DHT22;23548;51.196;6.838;2023-11-22T13:55:19;8.10;94.40
37702;DHT22;23548;51.196;6.838;2023-11-22T13:57:49;8.10;93.60
37702;DHT22;23548;51.196;6.838;2023-11-22T14:00:16;8.00;93.80
37702;DHT22;23548;51.196;6.838;2023-11-22T14:02:56;7.90;93.10
37702;DHT22;23548;51.196;6.838;2023-11-22T14:05:23;7.90;92.80
37702;DHT22;23548;51.196;6.838;2023-11-22T14:07:48;7.80;93.10
37702;DHT22;23548;51.196;6.838;2023-11-22T14:10:14;7.70;93.90
37702;DHT22;23548;51.196;6.838;2023-11-22T14:12:44;7.70;94.00
37702;DHT22;23548;51.196;6.838;2023-11-22T14:15:11;7.70;94.10
37702;DHT22;23548;51.196;6.838;2023-11-22T14:17:37;7.60;94.30
37702;DHT22;23548;51.196;6.838;2023-11-22T14:20:05;7.60;94.50
37702;DHT22;23548;51.196;6.838;2023-11-22T14:22:32;7.60;94.00
37702;DHT22;23548;51.196;6.838;2023-11-22T14:24:58;7.60;93.90
37702;DHT22;23548;51.196;6.838;2023-11-22T14:27:25;7.60;94.40
37702;DHT22;23548;51.196;6.838;2023-11-22T14:29:53;7.50;92.90
37702;DHT22;23548;51.196;6.838;2023-11-22T14:32:20;7.50;92.30
37702;DHT22;23548;51.196;6.838;2023-11-22T14:34:46;7.60;92.50
37702;DHT22;23548;51.196;6.838;2023-11-22T14:37:13;7.50;92.60
37702;DHT22;23548;51.196;6.838;2023-11-22T14:39:40;7.50;93.20
37702;DHT22;23548;51.196;6.838;2023-11-22T14:42:06;7.40;95.00
37702;DHT22;23548;51.196;6.838;2023-11-22T14:44:34;7.50;95.30
37702;DHT22;23548;51.196;6.838;2023-11-22T14:47:00;7.50;96.00
37702;DHT22;23548;51.196;6.838;2023-11-22T14:49:32;7.50;96.80
37702;DHT22;23548;51.196;6.838;2023-11-22T14:51:58;7.40;97.70
37702;DHT22;23548;51.196;6.838;2023-11-22T14:54:24;7.30;98.70
37702;DHT22;23548;51.196;6.838;2023-11-22T14:56:50;7.20;98.50
37702;DHT22;23548;51.196;6.838;2023-11-22T14:59:16;7.20;98.80
37702;DHT22;23548;51.196;6.838;2023-11-22T15:01:43;7.10;98.30
37702;DHT22;23548;51.196;6.838;2023-11-22T15:04:11;7.10;99.10
37702;DHT22;23548;51.196;6.838;2023-11-22T15:06:37;7.00;99.20
37702;DHT22;23548;51.196;6.838;2023-11-22T15:09:04;7.00;99.20
37702;DHT22;23548;51.196;6.838;2023-11-22T15:11:36;7.00;99.30
37702;DHT22;23548;51.196;6.838;2023-11-22T15:14:06;6.90;99.90
37702;DHT22;23548;51.196;6.838;2023-11-22T15:16:32;6.80;99.90
37702;DHT22;23548;51.196;6.838;2023-11-22T15:18:58;6.80;99.90
37702;DHT22;23548;51.196;6.838;2023-11-22T15:21:28;6.80;99.90
37702;DHT22;23548;51.196;6.838;2023-11-22T15:23:54;6.80;99.90
37702;DHT22;23548;51.196;6.838;2023-11-22T15:26:24;6.80;99.90
37702;DHT22;23548;51.196;6.838;2023-11-22T15:28:50;6.80;99.90
37702;DHT22;23548;51.196;6.838;2023-11-22T15:31:17;6.80;99.90
37702;DHT22;23548;51.196;6.838;2023-11-22T15:33:44;6.80;99.90
37702;DHT22;23548;51.196;6.838;2023-11-22T15:36:11;6.80;99.90
37702;DHT22;23548;51.196;6.838;2023-11-22T15:38:36;6.80;99.90
37702;DHT22;23548;51.196;6.838;2023-11-22T15:41:03;6.70;99.90
37702;DHT22;23548;51.196;6.838;2023-11-22T15:43:29;6.70;99.90
37702;DHT22;23548;51.196;6.838;2023-11-22T15:45:55;6.70;99.90
37702;DHT22;23548;51.196;6.838;2023-11-22T15:48:21;6.70;99.90
37702;DHT22;23548;51.196;6.838;2023-11-22T15:50:47;6.80;99.90